Time;durP1;ratioP1;P1;durP2;ratioP2;P2;SDS_P1;SDS_P2;PMS_P1;PMS_P2;Temp;Humidity;BMP_temperature;BMP_pressure;BME280_temperature;BME280_humidity;BME280_pressure;Samples;Min_cycle;Max_cycle;Signal;HPM_P1;HPM_P2
2023/10/02 03:55:15;;;;;;;4.03;3.42;;;;;;;11.22;100.00;101291.81;5496174;27;20130;-83
2023/10/02 03:58:35;;;;;;;6.00;3.28;;;;;;;11.25;100.00;101300.41;5403118;32;33079;-82
2023/10/02 04:01:40;;;;;;;7.85;3.05;;;;;;;11.23;100.00;101294.34;5403592;32;34071;-83
2023/10/02 04:04:44;;;;;;;4.90;3.37;;;;;;;11.27;100.00;101297.56;5414223;32;34158;-82
2023/10/02 04:07:48;;;;;;;7.50;3.70;;;;;;;11.35;100.00;101297.63;5402461;32;34127;-83
2023/10/02 04:10:55;;;;;;;6.55;3.22;;;;;;;11.39;100.00;101300.84;5415399;32;33863;-82
2023/10/02 04:14:01;;;;;;;5.70;2.67;;;;;;;11.37;100.00;101300.97;5415089;32;34067;-82
2023/10/02 04:17:14;;;;;;;5.35;2.95;;;;;;;11.43;100.00;101299.50;5402536;32;33557;-82
2023/10/02 04:20:30;;;;;;;6.35;2.78;;;;;;;11.43;100.00;101296.78;5415734;32;33809;-82
2023/10/02 04:23:38;;;;;;;6.97;2.78;;;;;;;11.47;100.00;101301.72;5392200;32;34207;-87
2023/10/02 04:26:48;;;;;;;5.10;2.67;;;;;;;11.48;100.00;101308.78;5402482;32;33387;-83
2023/10/02 04:33:14;;;;;;;9.35;4.00;;;;;;;11.54;100.00;101313.53;5420188;32;33520;-83
2023/10/02 04:36:24;;;;;;;6.30;3.20;;;;;;;11.63;100.00;101313.59;5403175;32;33209;-83
2023/10/02 04:46:01;;;;;;;5.05;3.35;;;;;;;11.78;100.00;101311.97;5414637;32;33268;-83
2023/10/02 04:49:07;;;;;;;6.93;3.12;;;;;;;11.81;100.00;101319.72;5414926;32;33141;-83
2023/10/02 04:52:11;;;;;;;9.32;2.95;;;;;;;11.85;100.00;101322.97;5415147;32;33338;-82
2023/10/02 04:55:23;;;;;;;3.28;2.60;;;;;;;11.92;100.00;101319.47;5395241;32;33307;-83
2023/10/02 04:58:28;;;;;;;5.25;2.55;;;;;;;11.96;100.00;101323.53;5396575;33;34311;-82
2023/10/02 05:01:41;;;;;;;4.85;2.58;;;;;;;11.99;100.00;101325.91;5395749;33;33233;-82
2023/10/02 05:04:45;;;;;;;5.87;3.05;;;;;;;12.01;100.00;101328.44;5402714;32;34072;-82
2023/10/02 05:07:52;;;;;;;4.62;2.78;;;;;;;12.05;100.00;101337.91;5413358;32;32800;-82
2023/10/02 05:11:05;;;;;;;7.05;2.95;;;;;;;12.11;100.00;101339.06;5401562;32;33380;-82
2023/10/02 05:14:09;;;;;;;6.30;3.30;;;;;;;12.11;100.00;101349.88;5414032;32;32989;-81
2023/10/02 05:17:41;;;;;;;5.05;2.97;;;;;;;12.15;100.00;101353.97;5416067;32;33013;-86
2023/10/02 05:20:46;;;;;;;4.65;2.75;;;;;;;12.20;100.00;101346.22;5415376;32;33116;-81
2023/10/02 05:24:00;;;;;;;5.62;2.83;;;;;;;12.25;100.00;101352.81;5414544;32;32863;-81
2023/10/02 05:27:04;;;;;;;5.00;2.92;;;;;;;12.26;100.00;101359.06;5393458;32;33381;-81
2023/10/02 05:30:12;;;;;;;6.47;3.60;;;;;;;12.32;100.00;101365.66;5390329;32;34605;-82
2023/10/02 05:33:36;;;;;;;;;;;;;;;12.31;100.00;101369.34;5415016;32;33227;-81
2023/10/02 05:36:55;;;;;;;8.00;3.03;;;;;;;12.29;100.00;101366.81;5420419;32;33717;-82
2023/10/02 05:43:21;;;;;;;5.65;3.62;;;;;;;12.35;100.00;101376.97;5403257;32;34318;-81
2023/10/02 05:46:54;;;;;;;6.50;3.97;;;;;;;12.49;100.00;101380.88;5415231;32;33451;-82
2023/10/02 05:49:53;;;;;;;10.48;4.65;;;;;;;12.58;100.00;101379.03;5399095;32;34063;-82
2023/10/02 05:52:57;;;;;;;9.43;4.25;;;;;;;12.62;100.00;101383.09;5392878;32;31874;-82
2023/10/02 05:56:12;;;;;;;9.82;4.47;;;;;;;12.76;100.00;101379.72;5418318;32;33556;-80
2023/10/02 05:59:24;;;;;;;8.95;4.35;;;;;;;12.96;100.00;101382.09;5416331;32;32370;-82
2023/10/02 06:02:27;;;;;;;11.75;4.55;;;;;;;13.02;100.00;101387.69;5415627;32;33732;-80
2023/10/02 06:05:31;;;;;;;13.65;4.82;;;;;;;13.08;100.00;101396.97;5406524;32;34113;-81
2023/10/02 06:08:34;;;;;;;8.10;4.80;;;;;;;13.15;100.00;101396.13;5389310;32;33421;-80
2023/10/02 06:11:59;;;;;;;8.93;4.57;;;;;;;13.24;100.00;101391.53;5384720;33;33231;-81
2023/10/02 06:15:15;;;;;;;7.80;4.28;;;;;;;13.40;100.00;101401.56;5387204;32;31881;-81
2023/10/02 06:18:24;;;;;;;9.85;4.20;;;;;;;13.53;100.00;101403.72;5386221;33;33416;-81
2023/10/02 06:22:21;;;;;;;7.03;3.78;;;;;;;13.68;100.00;101402.00;5385102;33;33268;-81
2023/10/02 06:24:59;;;;;;;20.23;5.62;;;;;;;13.78;100.00;101408.06;5392248;33;33247;-81
2023/10/02 06:28:23;;;;;;;34.00;9.07;;;;;;;13.91;100.00;101401.25;5385147;33;33384;-82
2023/10/02 06:31:36;;;;;;;37.60;9.50;;;;;;;13.96;100.00;101404.28;5377503;33;33621;-81
2023/10/02 06:34:39;;;;;;;12.68;4.68;;;;;;;14.08;100.00;101405.59;5397869;33;33935;-81
2023/10/02 06:37:45;;;;;;;11.68;5.53;;;;;;;14.19;100.00;101407.06;5408117;32;34134;-81
2023/10/02 06:40:58;;;;;;;8.55;4.28;;;;;;;14.26;100.00;101416.16;5416617;32;33646;-81
2023/10/02 06:44:14;;;;;;;6.00;3.60;;;;;;;14.48;100.00;101415.38;5421350;32;32992;-85
2023/10/02 06:47:21;;;;;;;12.13;4.68;;;;;;;14.79;100.00;101409.09;5425979;32;34083;-81
2023/10/02 06:50:27;;;;;;;11.20;5.35;;;;;;;14.99;100.00;101409.47;5416046;32;35067;-81
2023/10/02 06:53:31;;;;;;;14.52;5.15;;;;;;;15.13;100.00;101408.69;5415136;32;33335;-81
2023/10/02 06:56:34;;;;;;;10.73;3.62;;;;;;;15.27;100.00;101407.03;5414559;32;33365;-83
2023/10/02 06:59:39;;;;;;;8.77;3.53;;;;;;;15.56;100.00;101411.69;5392693;32;34384;-83
2023/10/02 07:02:54;;;;;;;9.93;4.35;;;;;;;15.78;100.00;101407.22;5397930;33;32787;-83
2023/10/02 07:05:57;;;;;;;7.12;3.40;;;;;;;15.90;100.00;101415.75;5385500;33;33573;-83
2023/10/02 07:09:10;;;;;;;7.68;3.80;;;;;;;16.03;100.00;101420.53;5384316;33;33062;-83
2023/10/02 07:12:14;;;;;;;8.57;3.62;;;;;;;16.21;100.00;101420.97;5389670;32;33333;-81
2023/10/02 07:15:22;;;;;;;8.52;3.50;;;;;;;16.34;100.00;101423.00;5416455;32;33100;-80
2023/10/02 07:18:45;;;;;;;7.28;3.50;;;;;;;16.52;100.00;101420.72;5415003;32;33167;-82
2023/10/02 07:21:48;;;;;;;7.80;3.42;;;;;;;16.60;100.00;101414.34;5419498;32;33873;-82
2023/10/02 07:24:57;;;;;;;8.98;4.07;;;;;;;16.50;100.00;101417.38;5404295;32;34116;-80
2023/10/02 07:28:00;;;;;;;9.03;4.60;;;;;;;16.63;100.00;101426.69;5416865;32;33396;-81
2023/10/02 07:31:03;;;;;;;6.37;3.90;;;;;;;16.63;100.00;101416.66;5403840;32;33264;-82
2023/10/02 07:34:08;;;;;;;7.78;3.62;;;;;;;16.80;100.00;101425.47;5402133;32;33020;-81
2023/10/02 07:37:13;;;;;;;7.50;3.25;;;;;;;17.02;100.00;101425.47;5402704;32;33328;-82
2023/10/02 07:40:16;;;;;;;6.78;3.50;;;;;;;17.23;100.00;101425.47;5424597;32;33259;-81
2023/10/02 07:43:19;;;;;;;7.20;3.00;;;;;;;17.32;100.00;101429.72;5414801;32;34286;-81
2023/10/02 07:46:23;;;;;;;6.40;3.28;;;;;;;17.52;98.00;101420.84;5420512;32;33304;-81
2023/10/02 07:49:27;;;;;;;6.93;2.60;;;;;;;17.63;99.70;101418.44;5418336;32;33012;-81
2023/10/02 07:52:35;;;;;;;4.80;2.90;;;;;;;17.66;97.89;101419.91;5394134;32;34084;-81
2023/10/02 07:55:43;;;;;;;5.87;2.25;;;;;;;17.87;93.83;101417.16;5419401;32;33453;-85
2023/10/02 07:58:54;;;;;;;6.03;2.33;;;;;;;17.84;91.36;101430.31;5420281;32;33389;-86
2023/10/02 08:02:21;;;;;;;4.95;2.75;;;;;;;18.05;90.54;101423.97;5420584;32;33392;-81
2023/10/02 08:05:20;;;;;;;7.45;2.62;;;;;;;18.28;90.34;101424.50;5404868;32;33676;-81
2023/10/02 08:08:33;;;;;;;7.57;2.75;;;;;;;18.41;90.40;101425.59;5414914;32;33460;-81
2023/10/02 08:11:38;;;;;;;5.10;2.35;;;;;;;18.57;90.38;101426.09;5417437;32;33485;-81
2023/10/02 08:14:42;;;;;;;6.35;3.03;;;;;;;18.86;88.45;101429.53;5403021;32;33412;-81
2023/10/02 08:20:48;;;;;;;6.10;2.60;;;;;;;18.99;88.71;101423.25;5420118;32;33895;-81
2023/10/02 08:23:55;;;;;;;6.82;2.80;;;;;;;19.12;84.03;101420.53;5401248;32;33323;-81
2023/10/02 08:26:58;;;;;;;5.57;2.58;;;;;;;19.21;87.20;101422.00;5414856;32;34343;-81
2023/10/02 08:30:17;;;;;;;10.10;3.03;;;;;;;19.41;83.11;101426.63;5413588;32;33093;-81
2023/10/02 08:33:20;;;;;;;5.20;2.42;;;;;;;19.65;83.31;101423.28;5415106;32;33598;-81
2023/10/02 08:36:43;;;;;;;4.82;2.55;;;;;;;19.86;79.37;101416.75;5422681;32;34473;-81
2023/10/02 08:39:46;;;;;;;8.60;3.08;;;;;;;19.91;77.46;101419.66;5424830;32;33648;-82
2023/10/02 08:42:52;;;;;;;6.60;2.62;;;;;;;19.92;76.50;101407.69;5413979;32;33087;-82
2023/10/02 08:45:59;;;;;;;7.95;3.03;;;;;;;19.83;77.48;101413.56;5401578;32;33346;-82
2023/10/02 08:49:06;;;;;;;7.00;2.60;;;;;;;19.97;77.64;101419.84;5414666;32;32926;-81
2023/10/02 08:52:12;;;;;;;4.65;2.40;;;;;;;20.10;80.85;101417.94;5425006;32;33309;-82
2023/10/02 08:55:36;;;;;;;7.18;2.70;;;;;;;20.16;77.94;101417.06;5399476;32;33883;-82
2023/10/02 08:58:39;;;;;;;11.15;3.08;;;;;;;20.25;74.46;101420.41;5399970;32;33849;-82
2023/10/02 09:01:47;;;;;;;5.53;2.40;;;;;;;20.36;76.09;101416.16;5398542;32;33984;-82
2023/10/02 09:04:53;;;;;;;6.30;2.63;;;;;;;20.54;74.31;101419.03;5383454;32;32894;-81
2023/10/02 09:11:04;;;;;;;4.78;2.90;;;;;;;20.90;73.79;101408.50;5393256;32;35081;-82
2023/10/02 09:14:21;;;;;;;5.07;2.58;;;;;;;20.91;72.52;101410.19;5411875;32;34036;-82
2023/10/02 09:17:33;;;;;;;6.80;3.00;;;;;;;21.09;72.05;101414.88;5414384;32;32997;-82
2023/10/02 09:20:53;;;;;;;75.05;9.13;;;;;;;21.02;70.36;101410.31;5401205;32;32871;-82
2023/10/02 09:24:00;;;;;;;9.95;2.60;;;;;;;21.17;74.11;101392.72;5413351;32;33330;-82
2023/10/02 09:27:23;;;;;;;8.50;2.72;;;;;;;21.34;71.21;101399.31;5409176;32;33043;-82
2023/10/02 09:30:41;;;;;;;6.15;3.00;;;;;;;21.42;68.96;101393.59;5400948;32;33354;-82
2023/10/02 09:33:46;;;;;;;4.10;2.83;;;;;;;21.33;72.56;101389.44;5407772;32;33299;-82
2023/10/02 09:37:11;;;;;;;5.00;2.60;;;;;;;21.39;69.95;101387.72;5392523;32;34103;-82
2023/10/02 09:44:10;;;;;;;5.53;2.47;;;;;;;21.29;67.60;101394.53;5413247;32;33186;-82
2023/10/02 09:47:20;;;;;;;5.68;2.35;;;;;;;21.35;67.95;101390.03;5387693;32;33325;-82
2023/10/02 09:50:26;;;;;;;7.50;2.57;;;;;;;21.34;69.61;101391.09;5412597;32;33697;-82
2023/10/02 09:53:32;;;;;;;5.93;2.72;;;;;;;21.68;69.14;101383.44;5412844;32;34079;-82
2023/10/02 09:57:04;;;;;;;5.70;2.62;;;;;;;21.92;67.09;101390.75;5399314;32;33358;-82
2023/10/02 10:00:33;;;;;;;6.80;2.85;;;;;;;21.99;63.60;101387.91;5414581;32;34165;-82
2023/10/02 10:03:34;;;;;;;5.18;2.33;;;;;;;21.81;66.44;101385.19;5406291;32;32830;-82
2023/10/02 10:06:49;;;;;;;5.20;2.33;;;;;;;21.85;63.04;101381.78;5382679;32;33131;-82
2023/10/02 10:10:27;;;;;;;7.75;2.72;;;;;;;21.97;65.46;101381.84;5387839;32;33487;-81
2023/10/02 10:13:46;;;;;;;6.10;2.80;;;;;;;22.00;63.21;101375.06;5414455;32;33493;-81
2023/10/02 10:16:50;;;;;;;5.95;2.65;;;;;;;22.30;61.35;101372.41;5403206;32;33688;-82
2023/10/02 10:20:09;;;;;;;5.70;3.10;;;;;;;22.57;63.80;101372.84;5417177;32;33026;-82
2023/10/02 10:23:34;;;;;;;8.43;3.17;;;;;;;22.60;60.63;101369.63;5415683;32;33359;-82
2023/10/02 10:26:38;;;;;;;7.43;2.92;;;;;;;22.58;59.26;101369.88;5407550;32;33759;-82
2023/10/02 10:29:42;;;;;;;7.03;2.90;;;;;;;22.71;58.72;101360.59;5406160;32;33536;-82
2023/10/02 10:32:45;;;;;;;9.25;2.90;;;;;;;22.96;56.44;101363.22;5402540;32;32896;-82
2023/10/02 10:35:55;;;;;;;7.03;3.03;;;;;;;23.14;57.36;101373.28;5414404;32;33245;-82
2023/10/02 10:39:30;;;;;;;4.32;2.65;;;;;;;23.07;59.72;101364.28;5414716;32;33396;-82
2023/10/02 10:42:23;;;;;;;6.68;3.17;;;;;;;23.44;58.39;101356.66;5397888;33;34370;-81
2023/10/02 10:45:30;;;;;;;7.75;3.17;;;;;;;23.52;55.52;101352.72;5396575;33;33420;-82
2023/10/02 10:48:33;;;;;;;9.52;3.25;;;;;;;23.51;57.07;101351.87;5396835;33;34678;-81
2023/10/02 10:51:36;;;;;;;4.62;3.10;;;;;;;23.81;58.95;101352.81;5397512;32;33345;-81
2023/10/02 10:54:41;;;;;;;6.43;3.00;;;;;;;24.09;54.65;101349.28;5413716;32;33098;-81
2023/10/02 10:58:00;;;;;;;6.53;2.70;;;;;;;24.53;53.74;101349.63;5389548;32;32939;-86
2023/10/02 11:01:13;;;;;;;;;;;;;;;24.74;54.62;101343.38;5396673;32;33306;-86
2023/10/02 11:04:26;;;;;;;8.40;3.05;;;;;;;25.23;51.99;101324.41;5413591;32;33531;-82
2023/10/02 11:07:37;;;;;;;7.93;2.78;;;;;;;25.64;51.03;101327.72;5400461;32;33053;-81
2023/10/02 11:10:40;;;;;;;4.72;2.83;;;;;;;25.83;48.13;101319.16;5415099;32;33071;-81
2023/10/02 11:14:01;;;;;;;6.32;2.90;;;;;;;26.32;47.46;101319.19;5412285;32;33673;-81
2023/10/02 11:17:04;;;;;;;7.75;3.12;;;;;;;26.56;47.74;101312.31;5425590;32;33309;-81
2023/10/02 11:20:08;;;;;;;9.25;3.10;;;;;;;26.99;44.38;101315.13;5421395;32;33711;-82
2023/10/02 11:23:12;;;;;;;7.12;3.00;;;;;;;26.92;45.36;101318.97;5407636;32;33427;-81
2023/10/02 11:26:21;;;;;;;6.57;3.05;;;;;;;26.71;43.62;101299.72;5416385;32;33463;-82
2023/10/02 11:29:25;;;;;;;7.35;3.17;;;;;;;27.76;40.71;101302.63;5415828;32;34240;-81
2023/10/02 11:32:53;;;;;;;8.45;3.60;;;;;;;28.01;39.34;101299.16;5388796;32;33262;-81
2023/10/02 11:35:58;;;;;;;7.10;2.92;;;;;;;28.58;38.54;101302.88;5399445;32;34131;-82
2023/10/02 11:39:16;;;;;;;5.57;2.78;;;;;;;29.29;37.15;101290.94;5410990;32;33813;-82
2023/10/02 11:42:19;;;;;;;5.47;2.73;;;;;;;30.18;34.39;101296.69;5414749;32;32731;-82
2023/10/02 11:45:22;;;;;;;5.62;2.95;;;;;;;31.89;32.21;101290.94;5398862;32;33146;-82
2023/10/02 11:48:25;;;;;;;8.07;2.87;;;;;;;33.37;29.72;101287.72;5372290;32;33392;-82
2023/10/02 11:51:29;;;;;;;6.40;3.10;;;;;;;33.74;28.40;101281.13;5409846;32;34172;-82
2023/10/02 11:54:39;;;;;;;8.32;2.78;;;;;;;34.18;27.54;101281.56;5388242;32;33304;-82
2023/10/02 11:57:44;;;;;;;5.10;2.55;;;;;;;34.74;26.67;101272.62;5392518;32;34208;-82
2023/10/02 12:00:47;;;;;;;5.85;2.83;;;;;;;35.98;25.84;101270.84;5415976;32;33261;-84
2023/10/02 12:03:50;;;;;;;7.05;3.25;;;;;;;37.57;23.85;101260.66;5410525;32;33375;-85
2023/10/02 12:06:55;;;;;;;4.78;2.33;;;;;;;35.94;25.28;101260.63;5405747;32;33803;-86
2023/10/02 12:10:00;;;;;;;6.60;2.67;;;;;;;37.12;23.39;101258.38;5386525;32;33495;-81
2023/10/02 12:13:03;;;;;;;4.93;2.60;;;;;;;37.53;23.58;101251.28;5378277;32;33393;-81
2023/10/02 12:16:13;;;;;;;;;;;;;;;37.61;23.28;101253.19;5395381;32;33117;-81
2023/10/02 12:19:16;;;;;;;4.85;2.55;;;;;;;37.88;23.40;101249.06;5406177;32;33737;-81
2023/10/02 12:22:19;;;;;;;7.35;2.65;;;;;;;37.10;23.11;101248.66;5397764;32;34338;-81
2023/10/02 12:25:22;;;;;;;6.80;2.75;;;;;;;36.75;24.10;101245.94;5400854;32;33494;-81
2023/10/02 12:28:26;;;;;;;7.87;2.78;;;;;;;37.76;22.58;101236.87;5398774;32;33498;-81
2023/10/02 12:31:30;;;;;;;5.03;2.55;;;;;;;37.87;22.28;101241.75;5418019;32;33474;-81
2023/10/02 12:34:33;;;;;;;5.80;2.78;;;;;;;38.54;21.94;101237.06;5405832;32;33252;-81
2023/10/02 12:37:37;;;;;;;5.57;2.62;;;;;;;39.57;20.78;101226.87;5402259;32;32832;-80
2023/10/02 12:40:40;;;;;;;7.72;2.60;;;;;;;39.77;20.67;101227.94;5408739;32;33236;-81
2023/10/02 12:43:45;;;;;;;5.15;2.40;;;;;;;40.13;20.40;101219.38;5410019;32;33390;-81
2023/10/02 12:46:51;;;;;;;6.37;3.03;;;;;;;39.73;20.10;101226.97;5408535;32;33525;-81
2023/10/02 12:49:54;;;;;;;7.77;2.87;;;;;;;38.95;20.68;101228.88;5400849;32;34405;-82
2023/10/02 12:52:57;;;;;;;8.32;2.70;;;;;;;38.67;21.38;101220.22;5383431;32;33331;-82
2023/10/02 12:56:00;;;;;;;7.47;2.90;;;;;;;40.00;20.46;101219.75;5403984;32;31515;-82
2023/10/02 12:59:07;;;;;;;4.87;2.50;;;;;;;38.89;21.26;101210.56;5399804;32;33613;-81
2023/10/02 13:02:10;;;;;;;5.87;2.40;;;;;;;38.62;21.70;101206.37;5413361;32;32941;-81
2023/10/02 13:05:13;;;;;;;5.75;2.50;;;;;;;36.78;22.80;101208.78;5400283;32;33006;-82
2023/10/02 13:08:16;;;;;;;6.15;2.58;;;;;;;36.36;23.44;101202.06;5401138;32;34291;-82
2023/10/02 13:11:19;;;;;;;7.43;2.50;;;;;;;37.26;23.26;101196.34;5391661;32;33218;-82
2023/10/02 13:14:23;;;;;;;4.47;2.40;;;;;;;35.88;24.32;101199.13;5414505;32;33292;-82
2023/10/02 13:17:27;;;;;;;5.80;2.37;;;;;;;34.31;25.90;101197.66;5411674;32;34046;-82
2023/10/02 13:20:33;;;;;;;5.62;2.33;;;;;;;33.34;27.33;101188.66;5390515;32;33094;-82
2023/10/02 13:23:36;;;;;;;6.10;2.62;;;;;;;32.00;29.55;101188.56;5400668;32;33737;-81
2023/10/02 13:26:40;;;;;;;6.60;2.62;;;;;;;31.32;30.48;101185.00;5409940;32;33218;-81
2023/10/02 13:29:44;;;;;;;4.55;2.58;;;;;;;30.85;30.87;101172.78;5411779;32;32981;-81
2023/10/02 13:32:47;;;;;;;5.32;2.15;;;;;;;29.65;32.52;101177.88;5409991;32;33146;-81
2023/10/02 13:36:00;;;;;;;2.80;2.28;;;;;;;28.99;34.19;101176.19;5410847;32;34506;-81
2023/10/02 13:39:04;;;;;;;5.62;2.50;;;;;;;28.09;36.10;101176.81;5412105;32;33286;-81
2023/10/02 13:42:10;;;;;;;4.30;2.30;;;;;;;27.70;36.69;101176.41;5400977;32;34453;-82
2023/10/02 13:45:13;;;;;;;6.07;3.42;;;;;;;27.11;38.85;101174.78;5412573;32;33636;-83
2023/10/02 13:48:17;;;;;;;10.02;2.80;;;;;;;26.55;38.97;101167.00;5401047;32;34512;-82
2023/10/02 13:51:20;;;;;;;9.13;2.62;;;;;;;26.17;40.63;101173.56;5402081;32;33131;-85
2023/10/02 13:54:24;;;;;;;13.68;3.17;;;;;;;25.55;41.51;101164.62;5414239;32;33163;-86
2023/10/02 13:57:27;;;;;;;6.12;2.67;;;;;;;25.49;42.47;101168.44;5389353;32;33335;-86
2023/10/02 14:00:35;;;;;;;7.78;2.60;;;;;;;25.27;42.35;101159.34;5390340;32;34446;-86
2023/10/02 14:03:41;;;;;;;;;;;;;;;24.89;43.06;101161.88;5392795;32;32806;-82
2023/10/02 14:06:46;;;;;;;5.97;2.65;;;;;;;24.55;43.91;101160.25;5415192;32;33106;-82
2023/10/02 14:09:49;;;;;;;3.85;2.28;;;;;;;24.31;44.62;101160.41;5416453;32;32768;-82
2023/10/02 14:12:52;;;;;;;5.53;2.83;;;;;;;24.02;46.03;101161.56;5390058;32;33463;-82
2023/10/02 14:15:55;;;;;;;7.53;2.47;;;;;;;23.94;46.11;101160.88;5415919;32;34720;-82
2023/10/02 14:18:57;;;;;;;6.80;2.80;;;;;;;23.85;46.54;101158.78;5402284;32;32500;-82
2023/10/02 14:22:01;;;;;;;3.60;2.42;;;;;;;23.72;47.76;101155.25;5400684;32;33444;-82
2023/10/02 14:25:06;;;;;;;5.00;2.45;;;;;;;23.70;47.35;101154.66;5413733;32;34260;-82
2023/10/02 14:28:10;;;;;;;3.83;2.60;;;;;;;23.42;47.70;101152.69;5412726;32;33098;-82
2023/10/02 14:31:28;;;;;;;5.70;2.30;;;;;;;23.21;48.90;101145.13;5399592;32;33229;-82
2023/10/02 14:34:33;;;;;;;7.25;2.90;;;;;;;23.13;48.95;101140.84;5414336;32;33715;-82
2023/10/02 14:37:35;;;;;;;4.55;2.78;;;;;;;23.05;49.42;101146.72;5390182;32;33038;-84
2023/10/02 14:40:38;;;;;;;5.37;3.03;;;;;;;23.10;48.87;101138.56;5390272;32;34410;-84
2023/10/02 14:43:41;;;;;;;4.53;2.53;;;;;;;23.04;49.34;101145.03;5402185;32;34417;-84
2023/10/02 14:46:44;;;;;;;4.60;2.97;;;;;;;23.17;48.51;101139.28;5416110;32;33243;-84
2023/10/02 14:49:47;;;;;;;5.82;2.40;;;;;;;22.94;50.68;101136.56;5414097;32;33268;-84
2023/10/02 14:52:55;;;;;;;5.55;2.65;;;;;;;22.76;50.92;101138.37;5414497;32;33298;-83
2023/10/02 14:56:05;;;;;;;3.15;2.53;;;;;;;22.70;51.27;101143.97;5415678;32;34630;-84
2023/10/02 14:59:08;;;;;;;7.03;2.67;;;;;;;22.59;51.34;101142.91;5386843;33;33351;-84
2023/10/02 15:02:11;;;;;;;3.42;2.55;;;;;;;22.58;51.06;101138.47;5381011;32;33003;-83
2023/10/02 15:05:15;;;;;;;5.78;2.50;;;;;;;22.50;51.46;101136.94;5414406;32;33197;-84
2023/10/02 15:08:18;;;;;;;6.00;2.80;;;;;;;22.45;51.33;101144.22;5402661;32;33255;-84
2023/10/02 15:11:21;;;;;;;4.32;2.37;;;;;;;22.39;52.11;101137.78;5414902;32;32958;-84
2023/10/02 15:14:26;;;;;;;4.68;2.42;;;;;;;22.34;52.01;101135.72;5415147;32;32921;-84
2023/10/02 15:17:33;;;;;;;7.20;2.97;;;;;;;22.26;51.75;101138.84;5411421;32;163133;-84
2023/10/02 15:20:37;;;;;;;8.18;2.42;;;;;;;22.13;52.85;101139.03;5418008;32;33095;-84
2023/10/02 15:23:40;;;;;;;3.20;2.30;;;;;;;22.00;53.29;101137.34;5420695;32;33541;-84
2023/10/02 15:26:45;;;;;;;7.53;2.80;;;;;;;21.95;53.26;101135.28;5399566;33;33422;-83
2023/10/02 15:29:49;;;;;;;4.12;2.35;;;;;;;21.96;53.33;101139.69;5400624;33;34463;-84
2023/10/02 15:32:55;;;;;;;7.85;2.85;;;;;;;21.89;53.64;101132.66;5386579;33;33042;-83
2023/10/02 15:35:58;;;;;;;6.15;2.80;;;;;;;21.85;53.90;101132.28;5398610;33;33420;-87
2023/10/02 15:39:02;;;;;;;4.15;2.60;;;;;;;21.78;54.65;101147.16;5372139;33;33386;-89
2023/10/02 15:42:06;;;;;;;4.75;2.50;;;;;;;21.75;54.60;101137.50;5397386;33;33532;-88
2023/10/02 15:45:15;;;;;;;5.22;2.53;;;;;;;21.63;55.47;101137.47;5383741;33;32983;-85
2023/10/02 15:48:18;;;;;;;3.58;2.40;;;;;;;21.57;55.08;101140.28;5403486;32;32961;-85
2023/10/02 15:51:23;;;;;;;4.15;2.40;;;;;;;21.46;56.53;101133.69;5401872;32;33867;-85
2023/10/02 15:54:29;;;;;;;7.55;2.83;;;;;;;21.37;56.38;101132.34;5401904;32;33398;-85
2023/10/02 15:57:32;;;;;;;3.67;2.30;;;;;;;21.24;56.71;101141.53;5402583;32;33572;-84
